sensor_id;sensor_type;location;lat;lon;timestamp;pressure;altitude;pressure_sealevel;temperature;humidity
63019;BME280;49105;46.046;10.760;2024-03-23T00:51:52;95528.34;;;7.84;67.52
63019;BME280;49105;46.046;10.760;2024-03-23T00:54:17;95530.38;;;7.67;68.23
63019;BME280;49105;46.046;10.760;2024-03-23T00:56:43;95523.22;;;7.57;68.61
63019;BME280;49105;46.046;10.760;2024-03-23T00:59:09;95533.75;;;7.57;68.69
63019;BME280;49105;46.046;10.760;2024-03-23T01:01:35;95526.88;;;7.56;68.66
63019;BME280;49105;46.046;10.760;2024-03-23T01:04:01;95526.44;;;7.69;68.29
63019;BME280;49105;46.046;10.760;2024-03-23T01:06:28;95523.84;;;7.75;68.03
63019;BME280;49105;46.046;10.760;2024-03-23T01:08:54;95517.22;;;7.72;67.75
63019;BME280;49105;46.046;10.760;2024-03-23T01:11:20;95515.09;;;7.69;67.67
63019;BME280;49105;46.046;10.760;2024-03-23T01:13:45;95515.41;;;7.78;67.83
63019;BME280;49105;46.046;10.760;2024-03-23T01:16:12;95506.97;;;7.81;67.53
63019;BME280;49105;46.046;10.760;2024-03-23T01:18:37;95510.94;;;7.78;67.42
63019;BME280;49105;46.046;10.760;2024-03-23T01:21:03;95520.31;;;7.59;68.28
63019;BME280;49105;46.046;10.760;2024-03-23T01:23:30;95515.00;;;7.49;68.73
63019;BME280;49105;46.046;10.760;2024-03-23T01:25:56;95512.91;;;7.51;68.80
63019;BME280;49105;46.046;10.760;2024-03-23T01:28:22;95504.03;;;7.62;68.21
63019;BME280;49105;46.046;10.760;2024-03-23T01:30:48;95503.00;;;7.73;67.97
63019;BME280;49105;46.046;10.760;2024-03-23T01:33:13;95504.03;;;7.62;68.03
63019;BME280;49105;46.046;10.760;2024-03-23T01:35:39;95507.66;;;7.51;68.51
63019;BME280;49105;46.046;10.760;2024-03-23T01:38:05;95501.28;;;7.41;68.66
63019;BME280;49105;46.046;10.760;2024-03-23T01:40:31;95499.56;;;7.20;69.04
63019;BME280;49105;46.046;10.760;2024-03-23T01:43:05;95508.28;;;7.20;69.18
63019;BME280;49105;46.046;10.760;2024-03-23T01:45:33;95498.06;;;7.29;69.07
63019;BME280;49105;46.046;10.760;2024-03-23T01:47:59;95497.56;;;7.37;68.59
63019;BME280;49105;46.046;10.760;2024-03-23T01:50:26;95492.03;;;7.39;68.41
63019;BME280;49105;46.046;10.760;2024-03-23T01:52:53;95490.75;;;7.41;68.65
63019;BME280;49105;46.046;10.760;2024-03-23T01:55:20;95485.50;;;7.46;68.29
63019;BME280;49105;46.046;10.760;2024-03-23T01:57:45;95494.47;;;7.45;68.29
63019;BME280;49105;46.046;10.760;2024-03-23T02:00:11;95489.72;;;7.47;68.32
63019;BME280;49105;46.046;10.760;2024-03-23T02:02:44;95493.41;;;7.46;68.61
63019;BME280;49105;46.046;10.760;2024-03-23T02:05:11;95491.25;;;7.38;68.37
63019;BME280;49105;46.046;10.760;2024-03-23T02:07:38;95487.56;;;7.34;68.19
63019;BME280;49105;46.046;10.760;2024-03-23T02:10:06;95488.06;;;7.36;68.45
63019;BME280;49105;46.046;10.760;2024-03-23T02:12:32;95483.28;;;7.28;68.83
63019;BME280;49105;46.046;10.760;2024-03-23T02:14:57;95482.72;;;7.16;69.06
63019;BME280;49105;46.046;10.760;2024-03-23T02:17:24;95475.81;;;7.10;69.29
63019;BME280;49105;46.046;10.760;2024-03-23T02:19:50;95475.06;;;7.14;69.15
63019;BME280;49105;46.046;10.760;2024-03-23T02:22:16;95471.13;;;7.17;69.38
63019;BME280;49105;46.046;10.760;2024-03-23T02:24:42;95465.34;;;7.20;69.30
63019;BME280;49105;46.046;10.760;2024-03-23T02:27:08;95469.03;;;7.19;69.08
63019;BME280;49105;46.046;10.760;2024-03-23T02:29:34;95468.41;;;7.02;69.30
63019;BME280;49105;46.046;10.760;2024-03-23T02:32:00;95461.47;;;6.90;69.71
63019;BME280;49105;46.046;10.760;2024-03-23T02:34:26;95461.75;;;6.89;70.14
63019;BME280;49105;46.046;10.760;2024-03-23T02:36:52;95457.31;;;6.94;70.05
63019;BME280;49105;46.046;10.760;2024-03-23T02:39:18;95457.09;;;7.01;69.80
63019;BME280;49105;46.046;10.760;2024-03-23T02:41:44;95452.34;;;7.03;69.61
63019;BME280;49105;46.046;10.760;2024-03-23T02:44:10;95456.31;;;7.06;69.72
63019;BME280;49105;46.046;10.760;2024-03-23T02:46:38;95463.22;;;7.12;69.14
63019;BME280;49105;46.046;10.760;2024-03-23T02:49:03;95458.97;;;7.11;69.42
63019;BME280;49105;46.046;10.760;2024-03-23T02:51:29;95458.97;;;7.11;69.38
63019;BME280;49105;46.046;10.760;2024-03-23T02:53:55;95452.16;;;7.15;68.87
63019;BME280;49105;46.046;10.760;2024-03-23T02:56:21;95446.91;;;7.15;68.83
63019;BME280;49105;46.046;10.760;2024-03-23T02:58:47;95447.66;;;7.10;69.21
63019;BME280;49105;46.046;10.760;2024-03-23T03:01:13;95446.84;;;7.05;69.10
63019;BME280;49105;46.046;10.760;2024-03-23T03:03:38;95450.50;;;6.99;69.46
63019;BME280;49105;46.046;10.760;2024-03-23T03:06:04;95444.81;;;6.75;69.62
63019;BME280;49105;46.046;10.760;2024-03-23T03:08:30;95441.34;;;6.69;69.76
63019;BME280;49105;46.046;10.760;2024-03-23T03:10:55;95431.38;;;6.71;69.85
63019;BME280;49105;46.046;10.760;2024-03-23T03:13:21;95428.53;;;6.78;69.41
63019;BME280;49105;46.046;10.760;2024-03-23T03:15:47;95428.84;;;6.86;69.54
63019;BME280;49105;46.046;10.760;2024-03-23T03:18:12;95427.84;;;6.92;69.19
63019;BME280;49105;46.046;10.760;2024-03-23T03:20:39;95426.75;;;6.88;69.38
63019;BME280;49105;46.046;10.760;2024-03-23T03:23:06;95431.44;;;6.81;69.58
63019;BME280;49105;46.046;10.760;2024-03-23T03:25:32;95438.22;;;6.72;69.52
63019;BME280;49105;46.046;10.760;2024-03-23T03:27:58;95434.25;;;6.69;69.79
63019;BME280;49105;46.046;10.760;2024-03-23T03:30:23;95426.63;;;6.68;69.84
63019;BME280;49105;46.046;10.760;2024-03-23T03:32:50;95416.69;;;6.75;69.96
63019;BME280;49105;46.046;10.760;2024-03-23T03:35:16;95415.16;;;6.84;69.62
63019;BME280;49105;46.046;10.760;2024-03-23T03:37:42;95416.22;;;6.83;69.59
63019;BME280;49105;46.046;10.760;2024-03-23T03:40:08;95416.41;;;6.71;69.67
63019;BME280;49105;46.046;10.760;2024-03-23T03:42:34;95415.38;;;6.40;70.29
63019;BME280;49105;46.046;10.760;2024-03-23T03:45:00;95413.16;;;6.27;71.08
63019;BME280;49105;46.046;10.760;2024-03-23T03:47:26;95405.34;;;6.37;70.90
63019;BME280;49105;46.046;10.760;2024-03-23T03:49:52;95405.16;;;6.44;70.54
63019;BME280;49105;46.046;10.760;2024-03-23T03:52:18;95402.81;;;6.47;70.33
63019;BME280;49105;46.046;10.760;2024-03-23T03:54:44;95405.72;;;6.51;70.41
63019;BME280;49105;46.046;10.760;2024-03-23T03:57:10;95402.84;;;6.53;70.20
63019;BME280;49105;46.046;10.760;2024-03-23T03:59:37;95402.56;;;6.49;70.12
63019;BME280;49105;46.046;10.760;2024-03-23T04:02:03;95404.41;;;6.54;70.06
63019;BME280;49105;46.046;10.760;2024-03-23T04:04:29;95408.19;;;6.63;70.02
63019;BME280;49105;46.046;10.760;2024-03-23T04:06:59;95397.31;;;6.54;69.94
63019;BME280;49105;46.046;10.760;2024-03-23T04:09:25;95400.78;;;6.22;70.92
63019;BME280;49105;46.046;10.760;2024-03-23T04:11:51;95398.34;;;6.16;71.34
63019;BME280;49105;46.046;10.760;2024-03-23T04:14:16;95398.94;;;6.23;70.73
63019;BME280;49105;46.046;10.760;2024-03-23T04:16:43;95392.16;;;6.27;70.83
63019;BME280;49105;46.046;10.760;2024-03-23T04:19:08;95386.38;;;6.30;70.72
63019;BME280;49105;46.046;10.760;2024-03-23T04:21:36;95377.47;;;6.31;70.74
63019;BME280;49105;46.046;10.760;2024-03-23T04:24:02;95379.31;;;6.36;70.74
63019;BME280;49105;46.046;10.760;2024-03-23T04:26:28;95380.59;;;6.33;70.46
63019;BME280;49105;46.046;10.760;2024-03-23T04:28:54;95373.78;;;6.32;70.77
63019;BME280;49105;46.046;10.760;2024-03-23T04:31:20;95377.19;;;6.33;71.05
63019;BME280;49105;46.046;10.760;2024-03-23T04:33:45;95364.84;;;6.33;70.68
63019;BME280;49105;46.046;10.760;2024-03-23T04:36:11;95356.97;;;6.33;70.63
63019;BME280;49105;46.046;10.760;2024-03-23T04:38:36;95361.44;;;6.33;70.67
63019;BME280;49105;46.046;10.760;2024-03-23T04:41:03;95349.91;;;6.39;70.70
63019;BME280;49105;46.046;10.760;2024-03-23T04:43:28;95356.47;;;6.36;70.50
63019;BME280;49105;46.046;10.760;2024-03-23T04:45:55;95355.19;;;6.07;71.02
63019;BME280;49105;46.046;10.760;2024-03-23T04:48:21;95359.97;;;5.88;71.67
63019;BME280;49105;46.046;10.760;2024-03-23T04:50:54;95361.41;;;5.95;71.16
63019;BME280;49105;46.046;10.760;2024-03-23T04:53:21;95350.44;;;6.04;70.91
63019;BME280;49105;46.046;10.760;2024-03-23T04:55:46;95352.06;;;6.10;71.06
63019;BME280;49105;46.046;10.760;2024-03-23T04:58:12;95352.09;;;6.15;70.75
63019;BME280;49105;46.046;10.760;2024-03-23T05:00:38;95352.13;;;6.20;70.71
63019;BME280;49105;46.046;10.760;2024-03-23T05:03:04;95356.94;;;6.28;70.48
63019;BME280;49105;46.046;10.760;2024-03-23T05:05:30;95356.63;;;6.25;70.77
63019;BME280;49105;46.046;10.760;2024-03-23T05:07:56;95347.44;;;6.22;70.69
63019;BME280;49105;46.046;10.760;2024-03-23T05:10:22;95353.78;;;6.26;70.52
63019;BME280;49105;46.046;10.760;2024-03-23T05:12:48;95343.59;;;6.03;70.51
63019;BME280;49105;46.046;10.760;2024-03-23T05:15:14;95352.19;;;5.93;71.15
63019;BME280;49105;46.046;10.760;2024-03-23T05:17:40;95340.88;;;5.92;71.54
63019;BME280;49105;46.046;10.760;2024-03-23T05:20:06;95344.84;;;5.95;71.73
63019;BME280;49105;46.046;10.760;2024-03-23T05:22:36;95339.31;;;5.96;71.80
63019;BME280;49105;46.046;10.760;2024-03-23T05:25:01;95340.41;;;6.01;71.60
63019;BME280;49105;46.046;10.760;2024-03-23T05:27:29;95332.03;;;6.04;71.47
63019;BME280;49105;46.046;10.760;2024-03-23T05:29:55;95329.50;;;6.14;70.94
63019;BME280;49105;46.046;10.760;2024-03-23T05:32:21;95330.25;;;6.09;70.79
63019;BME280;49105;46.046;10.760;2024-03-23T05:34:48;95320.44;;;6.00;71.10
63019;BME280;49105;46.046;10.760;2024-03-23T05:37:15;95325.22;;;6.03;71.49
63019;BME280;49105;46.046;10.760;2024-03-23T05:39:41;95323.09;;;6.05;71.04
63019;BME280;49105;46.046;10.760;2024-03-23T05:42:06;95324.91;;;5.99;70.95
63019;BME280;49105;46.046;10.760;2024-03-23T05:44:33;95327.19;;;5.90;70.72
63019;BME280;49105;46.046;10.760;2024-03-23T05:46:59;95314.00;;;5.85;70.95
63019;BME280;49105;46.046;10.760;2024-03-23T05:49:26;95318.84;;;5.93;70.84
63019;BME280;49105;46.046;10.760;2024-03-23T05:51:52;95309.56;;;5.86;71.50
63019;BME280;49105;46.046;10.760;2024-03-23T05:54:17;95312.44;;;5.84;71.55
63019;BME280;49105;46.046;10.760;2024-03-23T05:56:43;95314.59;;;5.92;70.99
63019;BME280;49105;46.046;10.760;2024-03-23T05:59:09;95317.53;;;5.96;71.31
63019;BME280;49105;46.046;10.760;2024-03-23T06:01:34;95306.25;;;6.01;70.88
63019;BME280;49105;46.046;10.760;2024-03-23T06:04:01;95307.91;;;6.07;70.83
63019;BME280;49105;46.046;10.760;2024-03-23T06:06:26;95307.09;;;6.01;71.18
63019;BME280;49105;46.046;10.760;2024-03-23T06:08:52;95309.19;;;6.04;71.31
63019;BME280;49105;46.046;10.760;2024-03-23T06:11:18;95295.84;;;6.11;71.29
63019;BME280;49105;46.046;10.760;2024-03-23T06:13:43;95293.28;;;6.21;71.36
63019;BME280;49105;46.046;10.760;2024-03-23T06:16:09;95299.34;;;6.21;71.05
63019;BME280;49105;46.046;10.760;2024-03-23T06:18:35;95306.84;;;6.08;71.20
63019;BME280;49105;46.046;10.760;2024-03-23T06:21:01;95293.47;;;6.09;71.38
63019;BME280;49105;46.046;10.760;2024-03-23T06:23:27;95295.38;;;6.19;71.30
63019;BME280;49105;46.046;10.760;2024-03-23T06:25:52;95282.84;;;6.31;71.25
63019;BME280;49105;46.046;10.760;2024-03-23T06:28:18;95287.63;;;6.39;71.05
63019;BME280;49105;46.046;10.760;2024-03-23T06:30:44;95279.78;;;6.50;70.80
63019;BME280;49105;46.046;10.760;2024-03-23T06:33:10;95271.38;;;6.53;70.55
63019;BME280;49105;46.046;10.760;2024-03-23T06:35:36;95274.97;;;6.31;70.54
63019;BME280;49105;46.046;10.760;2024-03-23T06:38:03;95268.88;;;6.26;70.98
63019;BME280;49105;46.046;10.760;2024-03-23T06:40:28;95266.03;;;6.32;71.35
63019;BME280;49105;46.046;10.760;2024-03-23T06:42:54;95266.91;;;6.53;71.21
63019;BME280;49105;46.046;10.760;2024-03-23T06:45:20;95256.78;;;6.77;70.62
63019;BME280;49105;46.046;10.760;2024-03-23T06:47:48;95249.44;;;6.89;70.33
63019;BME280;49105;46.046;10.760;2024-03-23T06:50:14;95255.00;;;6.93;70.32
63019;BME280;49105;46.046;10.760;2024-03-23T06:52:40;95245.25;;;6.99;70.02
63019;BME280;49105;46.046;10.760;2024-03-23T06:55:06;95246.09;;;7.09;70.26
63019;BME280;49105;46.046;10.760;2024-03-23T06:57:32;95241.13;;;7.23;69.98
63019;BME280;49105;46.046;10.760;2024-03-23T06:59:58;95239.03;;;7.35;69.69
63019;BME280;49105;46.046;10.760;2024-03-23T07:02:24;95245.38;;;7.50;69.43
63019;BME280;49105;46.046;10.760;2024-03-23T07:04:54;95245.88;;;7.57;69.03
63019;BME280;49105;46.046;10.760;2024-03-23T07:07:22;95246.69;;;7.57;68.69
63019;BME280;49105;46.046;10.760;2024-03-23T07:09:48;95241.69;;;7.56;68.94
63019;BME280;49105;46.046;10.760;2024-03-23T07:12:14;95245.88;;;7.52;69.11
63019;BME280;49105;46.046;10.760;2024-03-23T07:14:40;95236.69;;;7.59;69.24
63019;BME280;49105;46.046;10.760;2024-03-23T07:17:06;95235.88;;;7.69;69.14
63019;BME280;49105;46.046;10.760;2024-03-23T07:19:32;95219.03;;;7.80;68.88
63019;BME280;49105;46.046;10.760;2024-03-23T07:21:58;95225.88;;;7.81;68.68
63019;BME280;49105;46.046;10.760;2024-03-23T07:24:24;95222.75;;;7.74;69.40
63019;BME280;49105;46.046;10.760;2024-03-23T07:26:50;95225.34;;;7.79;69.17
63019;BME280;49105;46.046;10.760;2024-03-23T07:29:16;95208.22;;;7.87;69.57
63019;BME280;49105;46.046;10.760;2024-03-23T07:31:42;95214.00;;;7.99;69.04
63019;BME280;49105;46.046;10.760;2024-03-23T07:34:08;95208.72;;;8.04;68.77
63019;BME280;49105;46.046;10.760;2024-03-23T07:36:35;95196.88;;;8.07;68.65
63019;BME280;49105;46.046;10.760;2024-03-23T07:39:01;95197.13;;;8.05;68.79
63019;BME280;49105;46.046;10.760;2024-03-23T07:41:27;95193.16;;;8.13;69.06
63019;BME280;49105;46.046;10.760;2024-03-23T07:43:53;95181.50;;;8.29;68.25
63019;BME280;49105;46.046;10.760;2024-03-23T07:46:20;95173.59;;;8.44;68.18
63019;BME280;49105;46.046;10.760;2024-03-23T07:48:46;95168.25;;;8.55;67.66
63019;BME280;49105;46.046;10.760;2024-03-23T07:51:21;95167.97;;;8.61;67.40
63019;BME280;49105;46.046;10.760;2024-03-23T07:53:47;95175.06;;;8.66;67.04
63019;BME280;49105;46.046;10.760;2024-03-23T07:56:14;95172.97;;;8.63;67.27
63019;BME280;49105;46.046;10.760;2024-03-23T07:58:41;95165.09;;;8.58;67.11
63019;BME280;49105;46.046;10.760;2024-03-23T08:01:08;95152.41;;;8.60;67.08
63019;BME280;49105;46.046;10.760;2024-03-23T08:03:35;95152.88;;;8.72;66.87
63019;BME280;49105;46.046;10.760;2024-03-23T08:06:26;95158.34;;;8.86;66.72
63019;BME280;49105;46.046;10.760;2024-03-23T08:08:54;95160.16;;;8.90;66.50
63019;BME280;49105;46.046;10.760;2024-03-23T08:11:27;95153.25;;;9.00;66.89
63019;BME280;49105;46.046;10.760;2024-03-23T08:13:53;95157.38;;;9.16;66.46
63019;BME280;49105;46.046;10.760;2024-03-23T08:16:19;95155.94;;;9.29;66.30
63019;BME280;49105;46.046;10.760;2024-03-23T08:18:44;95154.50;;;9.47;66.27
63019;BME280;49105;46.046;10.760;2024-03-23T08:21:10;95146.78;;;9.55;65.55
63019;BME280;49105;46.046;10.760;2024-03-23T08:23:37;95144.56;;;9.67;65.21
63019;BME280;49105;46.046;10.760;2024-03-23T08:26:07;95118.44;;;9.90;65.47
63019;BME280;49105;46.046;10.760;2024-03-23T08:28:33;95107.34;;;10.12;65.16
63019;BME280;49105;46.046;10.760;2024-03-23T08:31:01;95108.81;;;10.23;64.14
63019;BME280;49105;46.046;10.760;2024-03-23T08:33:28;95106.41;;;10.27;63.51
63019;BME280;49105;46.046;10.760;2024-03-23T08:36:02;95094.25;;;10.26;63.27
63019;BME280;49105;46.046;10.760;2024-03-23T08:38:28;95088.28;;;10.15;62.75
63019;BME280;49105;46.046;10.760;2024-03-23T08:40:58;95083.34;;;10.08;63.12
63019;BME280;49105;46.046;10.760;2024-03-23T08:43:24;95081.13;;;10.15;62.97
63019;BME280;49105;46.046;10.760;2024-03-23T08:45:49;95084.69;;;10.30;62.37
63019;BME280;49105;46.046;10.760;2024-03-23T08:48:15;95085.97;;;10.32;62.59
63019;BME280;49105;46.046;10.760;2024-03-23T08:50:40;95082.75;;;10.35;62.42
63019;BME280;49105;46.046;10.760;2024-03-23T08:53:06;95075.34;;;10.37;61.52
63019;BME280;49105;46.046;10.760;2024-03-23T08:55:33;95077.69;;;10.39;61.26
63019;BME280;49105;46.046;10.760;2024-03-23T08:57:58;95063.75;;;10.33;60.91
63019;BME280;49105;46.046;10.760;2024-03-23T09:00:25;95056.03;;;10.37;60.89
63019;BME280;49105;46.046;10.760;2024-03-23T09:02:51;95051.31;;;10.53;60.52
63019;BME280;49105;46.046;10.760;2024-03-23T09:05:17;95038.66;;;10.68;60.45
63019;BME280;49105;46.046;10.760;2024-03-23T09:07:43;95042.06;;;10.88;59.84
63019;BME280;49105;46.046;10.760;2024-03-23T09:10:09;95042.13;;;11.02;59.77
63019;BME280;49105;46.046;10.760;2024-03-23T09:12:35;95035.00;;;11.16;59.21
63019;BME280;49105;46.046;10.760;2024-03-23T09:15:01;95037.47;;;11.26;58.85
63019;BME280;49105;46.046;10.760;2024-03-23T09:17:27;95035.16;;;11.38;58.55
63019;BME280;49105;46.046;10.760;2024-03-23T09:19:53;95035.78;;;11.49;58.20
63019;BME280;49105;46.046;10.760;2024-03-23T09:22:18;95028.50;;;11.55;57.84
63019;BME280;49105;46.046;10.760;2024-03-23T09:24:44;95020.97;;;11.62;57.45
63019;BME280;49105;46.046;10.760;2024-03-23T09:27:10;95016.53;;;11.71;57.87
63019;BME280;49105;46.046;10.760;2024-03-23T09:29:36;95018.50;;;11.79;57.98
63019;BME280;49105;46.046;10.760;2024-03-23T09:32:03;95004.91;;;11.86;57.67
63019;BME280;49105;46.046;10.760;2024-03-23T09:34:28;95006.66;;;11.90;57.15
63019;BME280;49105;46.046;10.760;2024-03-23T09:36:55;94998.28;;;11.97;57.71
63019;BME280;49105;46.046;10.760;2024-03-23T09:39:21;94986.19;;;12.05;57.87
63019;BME280;49105;46.046;10.760;2024-03-23T09:41:47;94993.97;;;12.15;57.63
63019;BME280;49105;46.046;10.760;2024-03-23T09:44:13;94985.28;;;12.23;57.76
63019;BME280;49105;46.046;10.760;2024-03-23T09:46:39;94975.22;;;12.34;58.00
63019;BME280;49105;46.046;10.760;2024-03-23T09:49:07;94970.50;;;12.45;57.44
63019;BME280;49105;46.046;10.760;2024-03-23T09:51:36;94967.59;;;12.55;57.43
63019;BME280;49105;46.046;10.760;2024-03-23T09:54:01;94960.69;;;12.68;57.98
63019;BME280;49105;46.046;10.760;2024-03-23T09:56:27;94954.81;;;12.79;57.84
63019;BME280;49105;46.046;10.760;2024-03-23T09:59:00;94945.81;;;12.89;58.04
63019;BME280;49105;46.046;10.760;2024-03-23T10:01:26;94932.78;;;13.01;58.10
63019;BME280;49105;46.046;10.760;2024-03-23T10:03:52;94923.44;;;13.12;57.20
63019;BME280;49105;46.046;10.760;2024-03-23T10:06:21;94909.72;;;13.19;57.84
63019;BME280;49105;46.046;10.760;2024-03-23T10:08:47;94899.94;;;13.28;57.86
63019;BME280;49105;46.046;10.760;2024-03-23T10:11:14;94893.09;;;13.36;56.96
63019;BME280;49105;46.046;10.760;2024-03-23T10:13:42;94889.66;;;13.44;57.60
63019;BME280;49105;46.046;10.760;2024-03-23T10:16:07;94882.34;;;13.50;56.84
63019;BME280;49105;46.046;10.760;2024-03-23T10:18:37;94871.59;;;13.63;56.62
63019;BME280;49105;46.046;10.760;2024-03-23T10:23:39;94860.81;;;13.77;55.61
63019;BME280;49105;46.046;10.760;2024-03-23T10:26:21;94843.47;;;13.88;54.89
63019;BME280;49105;46.046;10.760;2024-03-23T10:28:58;94834.38;;;13.98;54.67
63019;BME280;49105;46.046;10.760;2024-03-23T10:31:31;94837.84;;;14.07;54.44
63019;BME280;49105;46.046;10.760;2024-03-23T10:33:57;94832.50;;;14.07;53.69
63019;BME280;49105;46.046;10.760;2024-03-23T10:36:24;94827.47;;;14.14;53.87
63019;BME280;49105;46.046;10.760;2024-03-23T10:38:51;94828.75;;;14.17;53.39
63019;BME280;49105;46.046;10.760;2024-03-23T10:41:17;94809.50;;;14.20;52.69
63019;BME280;49105;46.046;10.760;2024-03-23T10:43:47;94806.03;;;14.28;52.76
63019;BME280;49105;46.046;10.760;2024-03-23T10:46:13;94793.19;;;14.30;51.77
63019;BME280;49105;46.046;10.760;2024-03-23T10:48:39;94792.56;;;14.33;52.32
63019;BME280;49105;46.046;10.760;2024-03-23T10:51:08;94794.72;;;14.40;52.01
63019;BME280;49105;46.046;10.760;2024-03-23T10:53:34;94777.16;;;14.48;52.37
63019;BME280;49105;46.046;10.760;2024-03-23T10:56:00;94784.84;;;14.58;52.16
63019;BME280;49105;46.046;10.760;2024-03-23T10:58:37;94761.97;;;14.66;52.34
63019;BME280;49105;46.046;10.760;2024-03-23T11:01:03;94761.16;;;14.74;51.81
63019;BME280;49105;46.046;10.760;2024-03-23T11:03:33;94752.63;;;14.80;51.74
63019;BME280;49105;46.046;10.760;2024-03-23T11:05:59;94747.94;;;14.86;51.12
63019;BME280;49105;46.046;10.760;2024-03-23T11:08:36;94737.22;;;14.95;50.50
63019;BME280;49105;46.046;10.760;2024-03-23T11:11:18;94729.19;;;15.03;50.59
63019;BME280;49105;46.046;10.760;2024-03-23T11:13:54;94729.31;;;15.07;50.42
63019;BME280;49105;46.046;10.760;2024-03-23T11:16:26;94718.00;;;15.10;50.56
63019;BME280;49105;46.046;10.760;2024-03-23T11:19:38;94712.56;;;15.27;50.28
63019;BME280;49105;46.046;10.760;2024-03-23T11:22:04;94705.41;;;15.40;49.63
63019;BME280;49105;46.046;10.760;2024-03-23T11:24:30;94705.78;;;15.51;49.32
63019;BME280;49105;46.046;10.760;2024-03-23T11:26:56;94701.50;;;15.58;49.61
63019;BME280;49105;46.046;10.760;2024-03-23T11:29:25;94700.28;;;15.77;48.77
63019;BME280;49105;46.046;10.760;2024-03-23T11:31:52;94693.22;;;15.93;48.11
63019;BME280;49105;46.046;10.760;2024-03-23T11:34:19;94692.59;;;16.08;48.33
63019;BME280;49105;46.046;10.760;2024-03-23T11:36:45;94675.47;;;16.09;47.70
63019;BME280;49105;46.046;10.760;2024-03-23T11:39:18;94671.34;;;16.12;48.05
63019;BME280;49105;46.046;10.760;2024-03-23T11:41:48;94664.94;;;16.13;47.56
63019;BME280;49105;46.046;10.760;2024-03-23T11:44:22;94655.91;;;16.05;47.29
63019;BME280;49105;46.046;10.760;2024-03-23T11:46:49;94641.78;;;16.05;47.12
63019;BME280;49105;46.046;10.760;2024-03-23T11:49:27;94631.31;;;16.12;47.39
63019;BME280;49105;46.046;10.760;2024-03-23T11:51:54;94620.09;;;16.19;47.22
63019;BME280;49105;46.046;10.760;2024-03-23T11:54:24;94618.31;;;16.23;46.51
63019;BME280;49105;46.046;10.760;2024-03-23T11:56:57;94607.53;;;16.19;46.44
63019;BME280;49105;46.046;10.760;2024-03-23T11:59:49;94591.50;;;16.19;46.58
63019;BME280;49105;46.046;10.760;2024-03-23T12:02:18;94585.94;;;16.24;46.49
63019;BME280;49105;46.046;10.760;2024-03-23T12:04:44;94576.50;;;16.27;46.24
63019;BME280;49105;46.046;10.760;2024-03-23T12:07:17;94561.72;;;16.17;46.11
63019;BME280;49105;46.046;10.760;2024-03-23T12:10:03;94556.69;;;16.16;46.26
63019;BME280;49105;46.046;10.760;2024-03-23T12:12:29;94548.56;;;16.12;46.06
63019;BME280;49105;46.046;10.760;2024-03-23T12:15:05;94527.91;;;16.09;46.54
63019;BME280;49105;46.046;10.760;2024-03-23T12:17:31;94521.00;;;16.08;46.43
63019;BME280;49105;46.046;10.760;2024-03-23T12:19:57;94527.22;;;16.12;46.50
63019;BME280;49105;46.046;10.760;2024-03-23T12:22:23;94535.69;;;16.14;46.41
63019;BME280;49105;46.046;10.760;2024-03-23T12:24:49;94534.13;;;16.13;46.57
63019;BME280;49105;46.046;10.760;2024-03-23T12:27:15;94534.13;;;16.13;46.85
63019;BME280;49105;46.046;10.760;2024-03-23T12:29:42;94523.47;;;16.13;46.98
63019;BME280;49105;46.046;10.760;2024-03-23T12:32:10;94522.66;;;16.12;46.68
63019;BME280;49105;46.046;10.760;2024-03-23T12:34:37;94523.47;;;16.13;47.07
63019;BME280;49105;46.046;10.760;2024-03-23T12:37:03;94508.88;;;16.10;46.99
63019;BME280;49105;46.046;10.760;2024-03-23T12:39:29;94505.75;;;16.08;47.15
63019;BME280;49105;46.046;10.760;2024-03-23T12:41:56;94508.53;;;16.12;47.36
63019;BME280;49105;46.046;10.760;2024-03-23T12:44:22;94502.53;;;16.15;47.59
63019;BME280;49105;46.046;10.760;2024-03-23T12:46:48;94505.97;;;16.16;47.52
63019;BME280;49105;46.046;10.760;2024-03-23T12:49:14;94498.75;;;16.16;47.09
63019;BME280;49105;46.046;10.760;2024-03-23T12:51:55;94484.31;;;16.05;47.29
63019;BME280;49105;46.046;10.760;2024-03-23T12:54:21;94486.41;;;15.99;47.17
63019;BME280;49105;46.046;10.760;2024-03-23T12:56:46;94490.63;;;15.88;47.69
63019;BME280;49105;46.046;10.760;2024-03-23T12:59:12;94466.06;;;15.82;47.96
63019;BME280;49105;46.046;10.760;2024-03-23T13:01:38;94467.50;;;15.80;48.31
63019;BME280;49105;46.046;10.760;2024-03-23T13:04:04;94464.06;;;15.79;48.64
63019;BME280;49105;46.046;10.760;2024-03-23T13:06:29;94456.84;;;15.92;48.71
63019;BME280;49105;46.046;10.760;2024-03-23T13:09:02;94449.81;;;16.12;48.47
63019;BME280;49105;46.046;10.760;2024-03-23T13:11:29;94441.78;;;16.24;48.21
63019;BME280;49105;46.046;10.760;2024-03-23T13:13:54;94437.19;;;16.37;47.34
63019;BME280;49105;46.046;10.760;2024-03-23T13:16:21;94440.44;;;16.30;47.79
63019;BME280;49105;46.046;10.760;2024-03-23T13:18:47;94445.44;;;16.32;47.96
63019;BME280;49105;46.046;10.760;2024-03-23T13:21:13;94437.03;;;16.46;48.25
63019;BME280;49105;46.046;10.760;2024-03-23T13:23:39;94424.09;;;16.60;48.39
63019;BME280;49105;46.046;10.760;2024-03-23T13:26:07;94413.81;;;16.74;48.29
63019;BME280;49105;46.046;10.760;2024-03-23T13:28:33;94392.44;;;16.74;48.25
63019;BME280;49105;46.046;10.760;2024-03-23T13:30:59;94388.78;;;16.79;48.55
63019;BME280;49105;46.046;10.760;2024-03-23T13:33:29;94406.44;;;16.83;48.41
63019;BME280;49105;46.046;10.760;2024-03-23T13:35:55;94402.22;;;16.82;48.33
63019;BME280;49105;46.046;10.760;2024-03-23T13:38:22;94395.56;;;16.76;48.32
63019;BME280;49105;46.046;10.760;2024-03-23T13:40:58;94395.13;;;16.74;48.54
63019;BME280;49105;46.046;10.760;2024-03-23T13:43:25;94391.47;;;16.67;48.82
63019;BME280;49105;46.046;10.760;2024-03-23T13:45:58;94450.28;;;16.54;48.66
63019;BME280;49105;46.046;10.760;2024-03-23T13:48:25;94441.09;;;16.40;47.37